Time;durP1;ratioP1;P1;durP2;ratioP2;P2;SDS_P1;SDS_P2;PMS_P1;PMS_P2;Temp;Humidity;BMP_temperature;BMP_pressure;BME280_temperature;BME280_humidity;BME280_pressure;Samples;Min_cycle;Max_cycle;Signal;HPM_P1;HPM_P2
2022/12/10 00:00:19;;;;;;;97.70;26.75;;;;;;;-2.01;93.19;100823.06;5033683;28;20219;-67
2022/12/10 00:02:45;;;;;;;103.07;27.88;;;;;;;-2.06;92.68;100822.72;5042154;28;20029;-67
2022/12/10 00:05:10;;;;;;;98.07;26.00;;;;;;;-2.07;93.19;100826.06;5042357;28;20033;-67
2022/12/10 00:07:35;;;;;;;97.63;27.13;;;;;;;-2.07;93.38;100823.50;5028303;28;20041;-67
2022/12/10 00:10:00;;;;;;;113.38;27.58;;;;;;;-2.07;93.29;100826.06;5046242;28;20021;-67
2022/12/10 00:12:26;;;;;;;101.78;28.13;;;;;;;-2.05;93.44;100827.03;5046090;28;20029;-67
2022/12/10 00:14:51;;;;;;;107.95;29.00;;;;;;;-2.05;93.02;100832.16;5044579;28;20030;-67
2022/12/10 00:17:16;;;;;;;94.70;25.48;;;;;;;-2.06;92.41;100835.47;5045758;28;20036;-66
2022/12/10 00:19:42;;;;;;;104.05;28.15;;;;;;;-2.08;92.54;100837.03;5041047;28;20292;-67
2022/12/10 00:22:07;;;;;;;96.50;27.52;;;;;;;-2.11;92.99;100832.59;5040405;28;20037;-67
2022/12/10 00:24:32;;;;;;;102.38;28.15;;;;;;;-2.10;93.24;100842.03;5045752;28;20071;-67
2022/12/10 00:26:58;;;;;;;101.82;27.10;;;;;;;-2.07;93.07;100840.47;5045697;28;20033;-64
2022/12/10 00:29:23;;;;;;;93.90;26.10;;;;;;;-2.06;93.40;100839.69;5043844;28;20025;-64
2022/12/10 00:31:48;;;;;;;106.28;25.98;;;;;;;-2.07;92.55;100837.91;5045620;28;20272;-64
2022/12/10 00:34:14;;;;;;;87.13;25.73;;;;;;;-2.14;92.50;100834.03;5027825;28;20046;-64
2022/12/10 00:36:47;;;;;;;94.78;25.30;;;;;;;-2.17;92.84;100836.34;5045659;28;20099;-64
2022/12/10 00:39:17;;;;;;;92.43;24.83;;;;;;;-2.22;93.41;100842.78;5045483;28;20267;-64
2022/12/10 00:41:42;;;;;;;103.20;25.38;;;;;;;-2.26;93.61;100851.84;5045491;28;20152;-64
2022/12/10 00:44:09;;;;;;;92.53;25.20;;;;;;;-2.27;93.72;100840.75;5038128;28;20296;-64
2022/12/10 00:46:34;;;;;;;95.72;26.85;;;;;;;-2.27;93.22;100834.78;5039102;28;20052;-64
2022/12/10 00:49:00;;;;;;;98.70;27.40;;;;;;;-2.25;93.55;100838.31;5045351;28;20264;-64
2022/12/10 00:51:26;;;;;;;98.80;27.67;;;;;;;-2.27;93.80;100835.66;5045271;28;20031;-65
2022/12/10 00:53:54;;;;;;;102.40;28.38;;;;;;;-2.28;93.43;100828.78;5045366;28;20017;-65
2022/12/10 00:56:22;;;;;;;90.78;26.02;;;;;;;-2.29;93.74;100827.00;5045328;28;20021;-67
2022/12/10 00:58:48;;;;;;;93.68;27.00;;;;;;;-2.32;93.93;100831.91;5043708;28;20022;-67
2022/12/10 01:01:21;;;;;;;102.90;27.90;;;;;;;-2.32;93.92;100826.78;5045137;28;20056;-67
2022/12/10 01:03:49;;;;;;;98.28;27.40;;;;;;;-2.33;94.11;100816.44;5045094;28;20059;-67
2022/12/10 01:06:23;;;;;;;85.70;24.98;;;;;;;-2.36;94.04;100819.69;5045190;28;20051;-67
2022/12/10 01:08:50;;;;;;;96.80;26.40;;;;;;;-2.36;94.07;100814.56;5045211;28;20049;-67
2022/12/10 01:11:18;;;;;;;93.88;26.17;;;;;;;-2.38;93.21;100823.75;5045300;28;20034;-67
2022/12/10 01:13:45;;;;;;;97.88;25.00;;;;;;;-2.38;93.79;100818.66;5039815;28;20022;-67
2022/12/10 01:16:13;;;;;;;99.88;25.92;;;;;;;-2.39;94.22;100824.56;5035642;28;20280;-67
2022/12/10 01:18:39;;;;;;;94.25;26.70;;;;;;;-2.40;94.30;100825.31;5044866;28;20029;-67
2022/12/10 01:21:09;;;;;;;94.35;27.70;;;;;;;-2.40;93.78;100827.88;5044894;28;20025;-67
2022/12/10 01:23:37;;;;;;;95.68;26.70;;;;;;;-2.46;94.22;100829.97;5038876;28;20104;-67
2022/12/10 01:26:06;;;;;;;97.10;26.60;;;;;;;-2.48;94.05;100837.50;5044711;28;20084;-67
2022/12/10 01:28:33;;;;;;;92.93;28.50;;;;;;;-2.48;93.89;100834.97;5044729;28;20017;-64
2022/12/10 01:31:06;;;;;;;86.13;24.67;;;;;;;-2.51;93.89;100836.38;5044835;28;20180;-64
2022/12/10 01:33:32;;;;;;;89.97;27.98;;;;;;;-2.52;94.45;100848.25;5042874;28;20049;-64
2022/12/10 01:36:06;;;;;;;85.68;26.25;;;;;;;-2.51;94.49;100841.47;5044691;28;20341;-65
2022/12/10 01:38:32;;;;;;;106.78;28.63;;;;;;;-2.50;94.25;100844.13;5044572;28;20044;-64
2022/12/10 01:40:59;;;;;;;98.63;26.92;;;;;;;-2.49;94.16;100852.66;5044695;28;20246;-64
2022/12/10 01:43:25;;;;;;;99.70;27.55;;;;;;;-2.46;94.20;100852.94;5044405;28;20034;-64
2022/12/10 01:45:51;;;;;;;96.53;26.85;;;;;;;-2.47;94.61;100857.13;5023335;28;20049;-64
2022/12/10 01:48:16;;;;;;;94.38;28.25;;;;;;;-2.47;94.37;100846.03;5021932;28;20038;-64
2022/12/10 01:50:41;;;;;;;87.38;26.13;;;;;;;-2.50;94.49;100854.34;5023319;28;20021;-64
2022/12/10 01:53:07;;;;;;;93.45;25.95;;;;;;;-2.54;94.42;100851.44;5024410;28;20100;-64
2022/12/10 01:55:42;;;;;;;82.30;24.80;;;;;;;-2.60;93.95;100853.53;5021568;28;20121;-64
2022/12/10 01:58:08;;;;;;;88.68;28.30;;;;;;;-2.67;94.82;100845.41;5024353;28;20276;-67
2022/12/10 02:00:40;;;;;;;103.82;28.52;;;;;;;-2.68;95.92;100850.38;5024669;28;20207;-67
2022/12/10 02:03:13;;;;;;;91.47;28.65;;;;;;;-2.68;96.31;100846.19;5024228;28;20026;-67
2022/12/10 02:05:44;;;;;;;96.68;28.08;;;;;;;-2.68;95.98;100851.28;5023215;28;20029;-67
2022/12/10 02:08:23;;;;;;;98.20;28.02;;;;;;;-2.67;96.06;100847.94;5024184;28;20045;-68
2022/12/10 02:11:17;;;;;;;101.65;28.60;;;;;;;-2.64;96.94;100853.31;5022639;28;20239;-67
2022/12/10 02:13:54;;;;;;;103.53;27.55;;;;;;;-2.64;96.89;100855.88;5024248;28;20050;-67
2022/12/10 02:16:42;;;;;;;105.88;28.40;;;;;;;-2.62;97.12;100854.31;5024323;28;20041;-67
2022/12/10 02:19:30;;;;;;;102.43;28.98;;;;;;;-2.59;97.21;100851.09;5020874;28;20041;-67
2022/12/10 02:21:57;;;;;;;93.43;26.58;;;;;;;-2.57;97.15;100853.78;5004309;28;20037;-68
2022/12/10 02:24:33;;;;;;;98.90;29.40;;;;;;;-2.59;97.32;100853.66;5003740;28;20328;-68
2022/12/10 02:27:07;;;;;;;90.47;26.60;;;;;;;-2.59;97.80;100853.66;5014874;28;20034;-68
2022/12/10 02:29:35;;;;;;;106.25;29.55;;;;;;;-2.59;98.04;100846.00;5023038;28;20032;-68
2022/12/10 02:32:09;;;;;;;102.10;28.38;;;;;;;-2.58;98.09;100846.88;5023784;28;20311;-68
2022/12/10 02:34:42;;;;;;;99.45;28.55;;;;;;;-2.56;98.12;100856.44;5018156;28;20303;-68
2022/12/10 02:37:31;;;;;;;97.05;27.15;;;;;;;-2.55;98.13;100859.88;5014915;28;20057;-67
2022/12/10 02:39:59;;;;;;;100.40;28.02;;;;;;;-2.52;98.46;100853.34;5023246;28;20042;-68
2022/12/10 02:42:27;;;;;;;104.53;29.17;;;;;;;-2.50;98.01;100849.25;5022279;28;20029;-68
2022/12/10 02:44:55;;;;;;;97.60;27.80;;;;;;;-2.49;98.50;100842.47;5031210;28;20038;-68
2022/12/10 02:47:21;;;;;;;102.97;29.15;;;;;;;-2.47;98.57;100840.94;5043277;28;20041;-68
2022/12/10 02:49:49;;;;;;;97.25;28.95;;;;;;;-2.45;98.91;100847.03;5043339;28;20018;-67
2022/12/10 02:52:18;;;;;;;107.80;27.15;;;;;;;-2.42;99.32;100849.81;5023471;28;20036;-68
2022/12/10 02:54:45;;;;;;;107.47;30.13;;;;;;;-2.39;98.92;100849.16;5041110;28;20108;-68
2022/12/10 02:57:33;;;;;;;103.65;29.17;;;;;;;-2.38;98.93;100856.94;5043119;28;20075;-68
2022/12/10 03:00:20;;;;;;;100.97;27.20;;;;;;;-2.36;99.27;100851.94;5043073;28;20127;-67
2022/12/10 03:03:04;;;;;;;109.85;28.23;;;;;;;-2.35;99.11;100853.72;5043044;28;20029;-68
2022/12/10 03:05:47;;;;;;;86.75;26.67;;;;;;;-2.35;99.53;100861.38;5039993;28;20044;-68
2022/12/10 03:08:38;;;;;;;91.68;25.60;;;;;;;-2.33;99.44;100859.81;5042834;28;20041;-68
2022/12/10 03:11:19;;;;;;;96.57;25.23;;;;;;;-2.29;99.63;100856.72;5042908;28;21129;-67
2022/12/10 03:13:57;;;;;;;93.97;26.42;;;;;;;-2.26;99.56;100859.50;5042806;28;20022;-68
2022/12/10 03:16:25;;;;;;;95.63;26.55;;;;;;;-2.24;99.20;100863.09;5043330;28;20025;-68
2022/12/10 03:18:55;;;;;;;97.60;26.38;;;;;;;-2.24;99.44;100865.63;5042884;28;20044;-68
2022/12/10 03:21:20;;;;;;;97.38;25.85;;;;;;;-2.24;99.77;100857.97;5040005;28;20256;-68
2022/12/10 03:23:48;;;;;;;91.25;24.77;;;;;;;-2.23;99.85;100853.75;5041595;28;20036;-68
2022/12/10 03:26:16;;;;;;;94.40;26.48;;;;;;;-2.23;99.69;100853.75;5042628;28;20272;-64
2022/12/10 03:28:48;;;;;;;90.55;27.27;;;;;;;-2.24;99.60;100854.53;5042957;28;20099;-64
2022/12/10 03:31:14;;;;;;;98.50;25.65;;;;;;;-2.25;100.00;100855.31;5040861;28;20033;-64
2022/12/10 03:33:40;;;;;;;92.57;27.50;;;;;;;-2.24;100.00;100850.31;5042532;28;20183;-64
2022/12/10 03:36:07;;;;;;;98.25;26.98;;;;;;;-2.23;100.00;100852.09;5042728;28;20052;-64
2022/12/10 03:38:34;;;;;;;94.88;25.63;;;;;;;-2.22;100.00;100853.00;5037295;28;20041;-64
2022/12/10 03:40:59;;;;;;;100.65;27.63;;;;;;;-2.22;100.00;100861.53;5022885;28;20033;-64
2022/12/10 03:43:25;;;;;;;103.43;27.23;;;;;;;-2.22;100.00;100863.19;5028222;28;20033;-64
2022/12/10 03:45:50;;;;;;;98.75;26.58;;;;;;;-2.22;100.00;100858.09;5040941;28;20064;-65
2022/12/10 03:48:15;;;;;;;95.45;26.75;;;;;;;-2.23;100.00;100853.75;5040788;28;20044;-65
2022/12/10 03:50:41;;;;;;;90.55;25.33;;;;;;;-2.22;100.00;100855.53;5042171;28;20032;-64
2022/12/10 03:53:06;;;;;;;94.00;26.52;;;;;;;-2.21;100.00;100875.19;5042193;28;20041;-64
2022/12/10 03:55:32;;;;;;;94.53;24.73;;;;;;;-2.20;100.00;100871.84;5042401;28;20041;-65
2022/12/10 03:57:58;;;;;;;98.18;26.15;;;;;;;-2.20;100.00;100869.28;5030082;28;20026;-64
2022/12/10 04:00:23;;;;;;;97.20;25.92;;;;;;;-2.20;100.00;100871.84;5032360;28;20075;-64
2022/12/10 04:02:48;;;;;;;91.80;25.55;;;;;;;-2.17;100.00;100872.06;5042430;28;20036;-65
2022/12/10 04:05:14;;;;;;;94.65;25.30;;;;;;;-2.17;100.00;100877.16;5042254;28;20026;-64
2022/12/10 04:07:39;;;;;;;99.38;25.98;;;;;;;-2.22;100.00;100878.50;5042407;28;20017;-64
2022/12/10 04:10:05;;;;;;;94.65;25.13;;;;;;;-2.23;100.00;100876.72;5042393;28;20264;-64
2022/12/10 04:12:30;;;;;;;99.65;27.52;;;;;;;-2.23;100.00;100877.63;5034282;28;20057;-65
2022/12/10 04:17:39;;;;;;;103.57;25.85;;;;;;;-2.22;100.00;100876.84;5042125;28;20029;-65
2022/12/10 04:20:05;;;;;;;105.75;28.02;;;;;;;-2.21;100.00;100880.28;5024467;28;20018;-64
2022/12/10 04:27:58;;;;;;;102.00;27.80;;;;;;;-2.20;100.00;100876.94;5040535;28;20319;-65
2022/12/10 04:30:23;;;;;;;135.55;28.08;;;;;;;-2.19;100.00;100871.97;5042153;28;20034;-64
2022/12/10 04:32:49;;;;;;;106.03;29.20;;;;;;;-2.19;100.00;100876.19;5042184;28;20026;-64
2022/12/10 04:35:14;;;;;;;116.10;28.30;;;;;;;-2.20;100.00;100882.06;5042179;28;20187;-65
2022/12/10 04:37:39;;;;;;;109.65;27.75;;;;;;;-2.18;100.00;100883.06;5041993;28;20060;-64
2022/12/10 04:40:06;;;;;;;111.82;28.23;;;;;;;-2.16;100.00;100878.97;5042041;28;20172;-64
2022/12/10 04:42:32;;;;;;;111.60;27.52;;;;;;;-2.16;100.00;100874.75;5040163;28;20517;-64
2022/12/10 04:44:57;;;;;;;112.32;27.95;;;;;;;-2.13;100.00;100881.75;5041887;28;20042;-65
2022/12/10 04:47:23;;;;;;;109.28;29.23;;;;;;;-2.14;100.00;100892.75;5042025;28;20029;-64
2022/12/10 04:49:48;;;;;;;118.03;29.50;;;;;;;-2.14;100.00;100883.41;5041958;28;20280;-64
2022/12/10 04:52:15;;;;;;;112.30;28.50;;;;;;;-2.16;100.00;100889.16;5051312;28;20097;-64
2022/12/10 04:54:41;;;;;;;114.90;27.55;;;;;;;-2.16;100.00;100886.63;5045321;28;20025;-64
2022/12/10 04:57:07;;;;;;;116.72;27.58;;;;;;;-2.11;100.00;100882.75;5039080;28;20061;-68
2022/12/10 04:59:32;;;;;;;122.32;29.27;;;;;;;-2.09;100.00;100891.41;5037382;28;20018;-68
2022/12/10 05:01:58;;;;;;;114.57;29.25;;;;;;;-2.09;100.00;100888.84;5045309;28;20029;-68
2022/12/10 05:04:23;;;;;;;130.60;30.08;;;;;;;-2.08;100.00;100889.78;5044964;28;20094;-68
2022/12/10 05:06:49;;;;;;;111.72;29.08;;;;;;;-2.10;100.00;100887.97;5041902;28;20034;-68
2022/12/10 05:09:14;;;;;;;118.68;30.02;;;;;;;-2.07;100.00;100892.44;5040270;28;20021;-68
2022/12/10 05:11:40;;;;;;;125.90;29.75;;;;;;;-2.05;100.00;100893.44;5045312;28;20105;-68
2022/12/10 05:14:05;;;;;;;113.13;27.35;;;;;;;-2.06;100.00;100886.53;5045126;28;20024;-68
2022/12/10 05:16:32;;;;;;;114.13;28.13;;;;;;;-2.07;100.00;100889.88;5044788;28;20029;-68
2022/12/10 05:18:58;;;;;;;117.40;28.48;;;;;;;-2.08;100.00;100879.56;5045256;28;20021;-68
2022/12/10 05:24:21;;;;;;;109.53;26.48;;;;;;;-2.08;100.00;100893.19;4986926;28;20050;-68
2022/12/10 05:26:50;;;;;;;119.70;27.08;;;;;;;-2.07;100.00;100891.53;5035243;28;20045;-64
2022/12/10 05:29:16;;;;;;;112.00;27.83;;;;;;;-2.07;100.00;100892.44;5044439;28;20095;-64
2022/12/10 05:31:41;;;;;;;115.85;29.17;;;;;;;-2.06;100.00;100896.75;5044793;28;20026;-64
2022/12/10 05:34:08;;;;;;;115.82;28.73;;;;;;;-2.05;100.00;100893.44;5040713;28;20279;-64
2022/12/10 05:36:33;;;;;;;105.40;28.45;;;;;;;-2.05;100.00;100888.31;5041814;28;20032;-64
2022/12/10 05:38:59;;;;;;;118.60;28.15;;;;;;;-2.05;100.00;100895.09;5042945;28;20025;-64
2022/12/10 05:41:28;;;;;;;119.97;29.98;;;;;;;-2.11;100.00;100888.75;5035757;28;20092;-64
2022/12/10 05:43:54;;;;;;;;;;;;;;;-2.10;100.00;100890.53;5040674;28;20049;-65
2022/12/10 05:46:24;;;;;;;117.68;26.70;;;;;;;-2.13;100.00;100886.84;5044380;28;19932;-64
2022/12/10 05:48:51;;;;;;;117.55;26.77;;;;;;;-2.15;100.00;100888.41;5044392;28;20087;-64
2022/12/10 05:51:19;;;;;;;121.05;31.20;;;;;;;-2.19;100.00;100886.41;5033408;28;20029;-64
2022/12/10 05:53:44;;;;;;;116.88;28.13;;;;;;;-2.19;100.00;100887.28;5032586;28;20049;-64
2022/12/10 05:56:16;;;;;;;115.93;28.55;;;;;;;-2.18;100.00;100890.72;5044128;28;20025;-65
2022/12/10 05:58:43;;;;;;;113.00;27.52;;;;;;;-2.16;100.00;100891.72;5042486;28;20361;-64
2022/12/10 06:01:11;;;;;;;114.03;27.83;;;;;;;-2.13;100.00;100894.50;5042373;28;20103;-64
2022/12/10 06:03:37;;;;;;;112.50;27.65;;;;;;;-2.11;100.00;100904.06;5042669;28;20032;-64
2022/12/10 06:06:03;;;;;;;107.22;25.58;;;;;;;-2.07;100.00;100900.09;5043874;28;20025;-64
2022/12/10 06:08:28;;;;;;;107.47;28.45;;;;;;;-2.02;100.00;100897.88;5026117;28;20026;-64
2022/12/10 06:10:54;;;;;;;114.63;25.48;;;;;;;-2.05;100.00;100898.53;5035431;28;20088;-64
2022/12/10 06:13:19;;;;;;;96.30;24.70;;;;;;;-2.08;100.00;100900.84;5042882;28;20092;-64
2022/12/10 06:15:45;;;;;;;98.80;25.13;;;;;;;-2.11;100.00;100905.75;5043835;28;20053;-64
2022/12/10 06:18:10;;;;;;;95.15;25.17;;;;;;;-2.12;100.00;100901.41;5041489;28;20080;-65
2022/12/10 06:20:38;;;;;;;98.82;27.10;;;;;;;-2.11;100.00;100903.19;5043659;28;20100;-64
2022/12/10 06:23:04;;;;;;;94.40;24.52;;;;;;;-2.11;100.00;100913.41;5025956;28;20266;-64
2022/12/10 06:25:29;;;;;;;96.53;25.35;;;;;;;-2.10;100.00;100908.41;5036817;28;20026;-65
2022/12/10 06:27:54;;;;;;;101.32;25.55;;;;;;;-2.08;100.00;100911.06;5043551;28;20272;-68
2022/12/10 06:30:19;;;;;;;106.32;25.75;;;;;;;-2.07;100.00;100910.31;5043293;28;20194;-68
2022/12/10 06:32:45;;;;;;;102.10;25.30;;;;;;;-2.06;100.00;100906.94;5025975;28;20044;-68
2022/12/10 06:35:10;;;;;;;107.35;25.58;;;;;;;-2.03;100.00;100912.28;5042501;28;20033;-68
2022/12/10 06:37:36;;;;;;;94.07;24.95;;;;;;;-2.00;100.00;100909.06;5042893;28;20025;-68
2022/12/10 06:40:02;;;;;;;99.05;24.27;;;;;;;-1.98;100.00;100907.56;5042433;28;20041;-68
2022/12/10 06:42:28;;;;;;;91.65;24.23;;;;;;;-1.98;100.00;100910.09;5043407;28;20177;-68
2022/12/10 06:44:53;;;;;;;97.50;24.17;;;;;;;-2.01;100.00;100913.31;5043041;28;20045;-68
2022/12/10 06:47:18;;;;;;;93.68;23.92;;;;;;;-2.04;100.00;100913.09;5025653;28;20044;-68
2022/12/10 06:49:43;;;;;;;101.22;23.23;;;;;;;-2.04;100.00;100923.28;5051577;28;20036;-68
2022/12/10 06:52:09;;;;;;;97.15;23.63;;;;;;;-2.02;100.00;100914.06;5037031;28;20052;-68
2022/12/10 06:54:34;;;;;;;91.35;22.40;;;;;;;-2.02;100.00;100924.28;5043212;28;20314;-68
2022/12/10 06:56:59;;;;;;;90.85;21.90;;;;;;;-2.02;100.00;100921.72;5043172;28;20022;-68
2022/12/10 06:59:25;;;;;;;101.25;23.20;;;;;;;-2.04;100.00;100925.84;5042989;28;20033;-68
2022/12/10 07:01:50;;;;;;;91.88;23.50;;;;;;;-2.06;100.00;100932.47;5043059;28;20048;-68
2022/12/10 07:04:16;;;;;;;99.22;24.63;;;;;;;-2.06;100.00;100937.59;5035771;28;20299;-68
2022/12/10 07:06:41;;;;;;;102.55;24.35;;;;;;;-2.05;100.00;100947.03;5042859;28;20060;-68
2022/12/10 07:09:07;;;;;;;104.65;24.55;;;;;;;-2.08;100.00;100938.28;5042806;28;20032;-68
2022/12/10 07:11:32;;;;;;;105.40;24.75;;;;;;;-2.07;100.00;100945.13;5042841;28;20814;-68
2022/12/10 07:13:58;;;;;;;110.85;26.23;;;;;;;-2.08;100.00;100939.16;5036563;28;20040;-68
2022/12/10 07:16:26;;;;;;;107.38;25.25;;;;;;;-2.13;100.00;100936.25;5042056;28;20210;-68
2022/12/10 07:18:52;;;;;;;108.13;26.02;;;;;;;-2.13;100.00;100936.25;5042841;28;20272;-68
2022/12/10 07:21:21;;;;;;;109.10;25.40;;;;;;;-2.13;100.00;100930.25;5039599;28;20038;-68
2022/12/10 07:23:46;;;;;;;115.85;27.13;;;;;;;-2.11;100.00;100941.47;5042841;28;20041;-68
2022/12/10 07:26:11;;;;;;;103.45;25.30;;;;;;;-2.11;100.00;100952.56;5042471;28;20025;-68
2022/12/10 07:28:37;;;;;;;113.05;26.80;;;;;;;-2.11;100.00;100954.25;5039604;28;20022;-68
2022/12/10 07:31:08;;;;;;;112.40;26.20;;;;;;;-2.11;100.00;100954.25;5028781;28;20085;-68
2022/12/10 07:33:34;;;;;;;108.40;25.00;;;;;;;-2.06;100.00;100954.59;5042907;28;20191;-68
2022/12/10 07:36:04;;;;;;;117.28;26.65;;;;;;;-2.04;100.00;100951.38;5042671;28;20302;-68
2022/12/10 07:38:29;;;;;;;;;;;;;;;-1.97;100.00;100957.81;5041443;28;20088;-68
2022/12/10 07:40:54;;;;;;;104.82;25.63;;;;;;;-1.98;100.00;100956.06;5023290;28;19924;-68
2022/12/10 07:43:19;;;;;;;114.22;26.23;;;;;;;-2.01;100.00;100958.38;5042410;28;20049;-68
2022/12/10 07:45:44;;;;;;;121.28;26.85;;;;;;;-2.02;100.00;100960.03;5042368;28;20052;-68
2022/12/10 07:48:10;;;;;;;116.97;27.80;;;;;;;-2.01;100.00;100964.38;5042749;28;20284;-68
2022/12/10 07:50:35;;;;;;;117.05;28.25;;;;;;;-1.98;100.00;100961.16;5045865;28;20029;-68
2022/12/10 07:53:00;;;;;;;111.32;26.13;;;;;;;-1.95;100.00;100961.41;5042521;28;20026;-68
2022/12/10 07:55:26;;;;;;;119.90;28.92;;;;;;;-1.96;100.00;100957.94;5040657;28;20057;-68
2022/12/10 07:57:51;;;;;;;117.70;26.27;;;;;;;-1.95;100.00;100966.50;5038764;28;20093;-64
2022/12/10 08:00:16;;;;;;;121.93;27.38;;;;;;;-1.94;100.00;100973.38;5042378;28;20057;-64
2022/12/10 08:02:42;;;;;;;112.38;25.20;;;;;;;-1.95;100.00;100977.59;5032535;28;20026;-64
2022/12/10 08:05:07;;;;;;;111.88;28.75;;;;;;;-1.95;100.00;100980.16;5042234;28;20045;-64
2022/12/10 08:07:33;;;;;;;128.48;29.20;;;;;;;-1.95;100.00;100976.72;5042166;28;20349;-64
2022/12/10 08:09:58;;;;;;;115.50;26.33;;;;;;;-1.97;100.00;100968.94;5042381;28;20025;-64
2022/12/10 08:12:23;;;;;;;130.77;29.98;;;;;;;-1.99;100.00;100967.91;5041016;28;20037;-64
2022/12/10 08:14:49;;;;;;;120.90;28.73;;;;;;;-1.96;100.00;100973.25;5042339;28;20029;-64
2022/12/10 08:17:14;;;;;;;105.88;27.10;;;;;;;-1.94;100.00;100981.03;5032341;28;20272;-64
2022/12/10 08:19:39;;;;;;;110.88;26.63;;;;;;;-1.95;100.00;100985.25;5041401;28;20052;-64
2022/12/10 08:22:05;;;;;;;113.93;26.40;;;;;;;-1.94;100.00;100994.69;5041679;28;20120;-64
2022/12/10 08:24:30;;;;;;;115.65;25.27;;;;;;;-1.94;100.00;100994.69;5029727;28;20083;-64
2022/12/10 08:26:55;;;;;;;120.55;28.17;;;;;;;-1.94;100.00;100992.16;5043543;28;20161;-64
2022/12/10 08:29:21;;;;;;;105.38;25.63;;;;;;;-1.95;100.00;100992.91;5045889;28;20032;-64
2022/12/10 08:31:46;;;;;;;121.00;26.55;;;;;;;-1.94;100.00;100998.91;5044516;28;20025;-64
2022/12/10 08:34:14;;;;;;;103.00;26.00;;;;;;;-1.92;100.00;101008.47;5045530;28;20021;-64
2022/12/10 08:36:39;;;;;;;108.85;27.70;;;;;;;-1.89;100.00;101001.84;5045694;28;20033;-64
2022/12/10 08:39:04;;;;;;;113.18;25.02;;;;;;;-1.87;100.00;101007.94;5034200;28;20373;-65
2022/12/10 08:41:29;;;;;;;116.18;26.60;;;;;;;-1.87;100.00;101006.25;5045521;28;20085;-64
2022/12/10 08:43:55;;;;;;;108.45;25.00;;;;;;;-1.85;100.00;101011.50;5045494;28;20333;-64
2022/12/10 08:46:21;;;;;;;103.63;24.27;;;;;;;-1.84;100.00;101010.72;5044192;28;20048;-64
2022/12/10 08:48:47;;;;;;;109.07;25.42;;;;;;;-1.84;100.00;101013.25;5042627;28;20132;-64
2022/12/10 08:51:18;;;;;;;88.75;22.85;;;;;;;-1.82;100.00;101020.28;5045538;28;20026;-64
2022/12/10 08:53:44;;;;;;;102.97;25.33;;;;;;;-1.81;100.00;101016.03;5034636;28;20029;-64
2022/12/10 08:56:10;;;;;;;100.57;25.17;;;;;;;-1.78;100.00;101018.88;5045481;28;20033;-67
2022/12/10 08:58:36;;;;;;;115.25;24.67;;;;;;;-1.78;100.00;101018.88;5045158;28;20025;-68
2022/12/10 09:01:06;;;;;;;92.22;22.60;;;;;;;-1.81;100.00;101021.16;5045453;28;20025;-68
2022/12/10 09:03:32;;;;;;;102.97;23.25;;;;;;;-1.81;100.00;101026.25;5045419;28;20282;-68
2022/12/10 09:06:01;;;;;;;99.28;24.65;;;;;;;-1.84;100.00;101024.41;5045265;28;20027;-68
2022/12/10 09:08:27;;;;;;;123.30;23.75;;;;;;;-1.86;100.00;101028.47;5043497;28;20025;-68
2022/12/10 09:10:52;;;;;;;100.88;25.48;;;;;;;-1.86;100.00;101030.16;5045278;28;20025;-68
2022/12/10 09:13:17;;;;;;;101.45;23.05;;;;;;;-1.86;100.00;101022.50;5045067;28;20303;-68
2022/12/10 09:15:52;;;;;;;109.47;23.35;;;;;;;-1.87;100.00;101021.56;5045154;28;20102;-68
2022/12/10 09:18:18;;;;;;;96.53;24.55;;;;;;;-1.88;100.00;101026.56;5044974;28;20041;-68
2022/12/10 09:20:43;;;;;;;102.95;24.27;;;;;;;-1.87;100.00;101026.69;5045076;28;20017;-68
2022/12/10 09:23:08;;;;;;;100.80;23.65;;;;;;;-1.83;100.00;101026.16;5043011;28;20052;-68
2022/12/10 09:25:34;;;;;;;99.20;23.50;;;;;;;-1.79;100.00;101029.84;5041825;28;20371;-68
2022/12/10 09:27:59;;;;;;;90.18;23.55;;;;;;;-1.77;100.00;101025.72;5044838;28;20256;-68
2022/12/10 09:30:24;;;;;;;110.30;23.42;;;;;;;-1.73;100.00;101030.31;5044798;28;20084;-68
2022/12/10 09:32:49;;;;;;;91.82;21.92;;;;;;;-1.71;100.00;101031.28;5044870;28;20264;-68
2022/12/10 09:35:15;;;;;;;97.10;23.40;;;;;;;-1.69;100.00;101036.56;5044735;28;20053;-68
2022/12/10 09:37:40;;;;;;;89.90;21.80;;;;;;;-1.68;100.00;101033.19;5044327;28;20056;-68
2022/12/10 09:40:06;;;;;;;83.38;21.33;;;;;;;-1.67;100.00;101040.97;5042901;28;20017;-68
2022/12/10 09:42:42;;;;;;;81.00;20.70;;;;;;;-1.68;100.00;101044.31;5043389;28;20259;-68
2022/12/10 09:45:26;;;;;;;86.40;20.90;;;;;;;-1.68;100.00;101049.44;5029753;28;20040;-68
2022/12/10 09:48:04;;;;;;;81.57;20.08;;;;;;;-1.67;100.00;101051.19;5044550;28;20103;-68
2022/12/10 09:51:05;;;;;;;86.82;21.45;;;;;;;-1.65;100.00;101049.66;5044452;28;20218;-68
2022/12/10 09:53:32;;;;;;;81.80;20.48;;;;;;;-1.60;100.00;101057.66;5044394;28;20045;-68
2022/12/10 09:55:58;;;;;;;85.47;20.55;;;;;;;-1.59;100.00;101056.91;5031018;28;20036;-68
2022/12/10 09:58:25;;;;;;;85.80;20.13;;;;;;;-1.59;100.00;101052.69;5041881;28;20069;-68
2022/12/10 10:00:56;;;;;;;79.88;21.13;;;;;;;-1.55;100.00;101050.34;5044379;28;20039;-68
2022/12/10 10:03:22;;;;;;;85.60;21.50;;;;;;;-1.53;100.00;101056.47;5044130;28;20032;-68
2022/12/10 10:05:50;;;;;;;90.07;21.50;;;;;;;-1.52;100.00;101059.16;5044194;28;20029;-68
2022/12/10 10:08:40;;;;;;;87.50;23.05;;;;;;;-1.49;100.00;101064.50;5043981;28;20021;-68
2022/12/10 10:11:08;;;;;;;98.57;22.88;;;;;;;-1.48;100.00;101062.81;5030613;28;20038;-68
2022/12/10 10:13:38;;;;;;;93.28;23.80;;;;;;;-1.49;100.00;101067.03;5037487;28;20095;-68
2022/12/10 10:16:56;;;;;;;95.35;22.92;;;;;;;-1.48;100.00;101062.81;5043886;28;20029;-68
2022/12/10 10:19:28;;;;;;;91.18;22.65;;;;;;;-1.46;100.00;101061.28;5009309;28;20105;-68
2022/12/10 10:21:53;;;;;;;89.10;21.67;;;;;;;-1.45;100.00;101068.16;5037984;28;20018;-68
2022/12/10 10:24:22;;;;;;;79.28;20.75;;;;;;;-1.48;100.00;101073.03;5039453;28;20093;-67
2022/12/10 10:26:49;;;;;;;95.47;21.52;;;;;;;-1.47;100.00;101074.81;5043837;28;20024;-68
2022/12/10 10:29:21;;;;;;;89.68;22.60;;;;;;;-1.49;100.00;101066.13;5043600;28;20083;-67
2022/12/10 10:31:46;;;;;;;96.07;21.63;;;;;;;-1.52;100.00;101077.03;5043782;28;20033;-67
2022/12/10 10:34:18;;;;;;;86.82;22.05;;;;;;;-1.51;100.00;101065.13;5043547;28;20329;-67
2022/12/10 10:36:44;;;;;;;79.43;19.50;;;;;;;-1.51;100.00;101072.81;5037115;28;20084;-67
2022/12/10 10:39:11;;;;;;;89.00;20.13;;;;;;;-1.51;100.00;101076.25;5031084;28;20025;-68
2022/12/10 10:41:39;;;;;;;92.75;23.23;;;;;;;-1.54;100.00;101070.03;5043343;28;20030;-67
2022/12/10 10:44:14;;;;;;;81.03;20.35;;;;;;;-1.60;100.00;101065.34;5043050;28;20033;-67
2022/12/10 10:46:41;;;;;;;83.05;20.10;;;;;;;-1.60;100.00;101062.78;5025709;28;20013;-67
2022/12/10 10:49:32;;;;;;;76.00;18.52;;;;;;;-1.57;100.00;101069.00;5042572;28;20047;-67
2022/12/10 10:52:06;;;;;;;79.20;19.30;;;;;;;-1.55;100.00;101061.47;5035095;28;20022;-67
2022/12/10 10:54:39;;;;;;;67.68;18.70;;;;;;;-1.53;100.00;101061.59;5029967;28;20010;-67
2022/12/10 10:57:12;;;;;;;74.68;19.50;;;;;;;-1.57;100.00;101060.44;5043079;28;20283;-67
2022/12/10 10:59:38;;;;;;;85.70;21.83;;;;;;;-1.61;100.00;101064.47;5043060;28;20075;-67
2022/12/10 11:02:28;;;;;;;76.75;19.65;;;;;;;-1.58;100.00;101062.13;5042994;28;20268;-67
2022/12/10 11:04:55;;;;;;;94.00;21.45;;;;;;;-1.57;100.00;101061.34;5042753;28;20294;-67
2022/12/10 11:07:33;;;;;;;75.30;19.98;;;;;;;-1.55;100.00;101063.13;5033752;28;20188;-67
2022/12/10 11:09:59;;;;;;;80.15;19.42;;;;;;;-1.52;100.00;101058.25;5042920;28;20071;-67
2022/12/10 11:12:34;;;;;;;78.22;19.85;;;;;;;-1.52;100.00;101054.03;5042706;28;20047;-67
2022/12/10 11:14:59;;;;;;;78.28;18.48;;;;;;;-1.51;100.00;101052.38;5042817;28;20064;-67
2022/12/10 11:17:27;;;;;;;78.85;19.83;;;;;;;-1.48;100.00;101047.47;5042739;28;20332;-67